Etusivu
METAR-TAF:

METAR-TAF

Lentoasemat :

Bergenin lentoasema

Bergen, Norja

Leveyspiiri: 60-17N, Pituuspiiri: 005-14E, korkeus merenpinnasta: 5 m

Tämänhetkinen sää

Tämä raportti tehtiin 27 minuuttia sitten, kello 13.20 UTC
Tuuli 12 kn etelästä
Lämpötila 15°C
Kosteus 59%
Ilmanpaine 1023 hPa
Näkyvyys 10 km tai enemmän
ei pilviä alle 1500 m:ssä eikä cumulonimbus-pilviä

METAR: ENBR 201320Z 19012KT CAVOK 15/07 Q1023 NOSIG RMK WIND 1200FT 17025G37KT

Aika: 15:47 (13:47 UTC)

Sääennuste

Ennuste voimassa 20. päivästä klo 12 UTC - 21. päivään klo 12 UTC
Tuuli 15 kn etelästä/kaakosta
Näkyvyys 10 km tai enemmän
ei pilviä alle 1500 m:ssä eikä cumulonimbus-pilviä
Ajoittain
20. päivästä klo 12 UTC - 20. päivään klo 21 UTC
Tuuli 20 kn etelästä puuskistuen 30 kn:hen

TAF: ENBR 2012/2112 16015KT CAVOK TEMPO 2012/2021 18020G30KT

Säähavainnot ja -ennusteet yli 4000 lentoasemalta (METAR- ja TAF-raportit).

Käytössä olevat sääasemat on merkitty karttaan keltaisilla ja punaisilla pisteillä.

Aseta hiiri pisteen päälle nähdäksesi sääaseman nimen.

Klikkaa sitten nähdäksesi säähavainnot ja -ennusteet.

Kartan vaihtaminen: klikkaa mustalla rastilla varustettuja vihreitä pisteitä, niin voit zoomata sisään; viivalla varustettua vihreää pistettä, niin voit zoomata ulos tai vihreitä nuolia, niin pääset viereisille kartoille.


METAR-TAF: